Forside
METAR-TAF:

METAR-TAF

Lufthavne :

Oelwein Municipal Airport

Oelwein, Iowa, USA

Breddekreds: 42-40-51N, længdekreds: 091-58-28W, højde: 328 m

Aktuelle vejr

Denne rapport blev lavet for 26 minutter siden, kl. 06:35 UTC
Vind 7 kt fra øst
Temperatur 10°C
Fugtighed 82%
Tryk 1019 hPa
Sigt: 16.1 km
Brudte skyer i en højde af 7500 ft
Overskyet i en højde af 10000 ft

METAR: KOLZ 210635Z AUTO 10007KT 10SM BKN075 OVC100 10/07 A3008 RMK AO2 PWINO

Tid: 02:01 (07:01 UTC)


TAF: fraværende

Vejrobservationer og prognoser fra mere end 4000 lufthavne (METAR og TAF).

De gule og røde prikker repræsenterer de meteorologiske stationer.

Flyt musen over at se navnet på stationen.

Så klik over at se vejr observationer og prognoser.

At skifte det kort: Klik på de grønne knapper med et sort kors for at zoome ind; på den grønne knap med en bindestreg for at zoome ud; eller på de grønne pile for tilstødende kort.


METAR-TAF: